sensor_id;sensor_type;location;lat;lon;timestamp;temperature;humidity
7598;DHT22;3840;59.32098800;18.06423600;2023-03-13T00:01:21;-4.70;99.90
7598;DHT22;3840;59.32098800;18.06423600;2023-03-13T00:03:47;-4.70;99.90
7598;DHT22;3840;59.32098800;18.06423600;2023-03-13T00:06:14;-4.70;99.90
7598;DHT22;3840;59.32098800;18.06423600;2023-03-13T00:08:40;-4.70;99.90
7598;DHT22;3840;59.32098800;18.06423600;2023-03-13T00:11:07;-4.70;99.90
7598;DHT22;3840;59.32098800;18.06423600;2023-03-13T00:13:34;-4.80;99.90
7598;DHT22;3840;59.32098800;18.06423600;2023-03-13T00:16:01;-4.80;99.90
7598;DHT22;3840;59.32098800;18.06423600;2023-03-13T00:18:27;-4.80;99.90
7598;DHT22;3840;59.32098800;18.06423600;2023-03-13T00:20:59;-4.80;99.90
7598;DHT22;3840;59.32098800;18.06423600;2023-03-13T00:23:26;-4.90;99.90
7598;DHT22;3840;59.32098800;18.06423600;2023-03-13T00:26:09;-4.90;99.90
7598;DHT22;3840;59.32098800;18.06423600;2023-03-13T00:28:38;-4.90;99.90
7598;DHT22;3840;59.32098800;18.06423600;2023-03-13T00:33:34;-4.80;99.90
7598;DHT22;3840;59.32098800;18.06423600;2023-03-13T00:36:02;-4.90;99.90
7598;DHT22;3840;59.32098800;18.06423600;2023-03-13T00:38:29;-4.80;99.90
7598;DHT22;3840;59.32098800;18.06423600;2023-03-13T00:41:04;-4.80;99.90
7598;DHT22;3840;59.32098800;18.06423600;2023-03-13T00:43:30;-4.80;99.90
7598;DHT22;3840;59.32098800;18.06423600;2023-03-13T00:45:56;-4.90;99.90
7598;DHT22;3840;59.32098800;18.06423600;2023-03-13T00:48:22;-4.90;99.90
7598;DHT22;3840;59.32098800;18.06423600;2023-03-13T00:50:47;-4.90;99.90
7598;DHT22;3840;59.32098800;18.06423600;2023-03-13T00:53:13;-4.90;99.90
7598;DHT22;3840;59.32098800;18.06423600;2023-03-13T00:55:59;-4.90;99.90
7598;DHT22;3840;59.32098800;18.06423600;2023-03-13T00:58:27;-4.90;99.90
7598;DHT22;3840;59.32098800;18.06423600;2023-03-13T01:00:53;-4.90;99.90
7598;DHT22;3840;59.32098800;18.06423600;2023-03-13T01:03:21;-4.90;99.90
7598;DHT22;3840;59.32098800;18.06423600;2023-03-13T01:06:00;-4.90;99.90
7598;DHT22;3840;59.32098800;18.06423600;2023-03-13T01:08:27;-4.90;99.90
7598;DHT22;3840;59.32098800;18.06423600;2023-03-13T01:11:05;-4.90;99.90
7598;DHT22;3840;59.32098800;18.06423600;2023-03-13T01:13:32;-4.90;99.90
7598;DHT22;3840;59.32098800;18.06423600;2023-03-13T01:16:08;-4.80;99.90
7598;DHT22;3840;59.32098800;18.06423600;2023-03-13T01:18:35;-4.80;99.90
7598;DHT22;3840;59.32098800;18.06423600;2023-03-13T01:21:01;-4.80;99.90
7598;DHT22;3840;59.32098800;18.06423600;2023-03-13T01:23:27;-4.80;99.90
7598;DHT22;3840;59.32098800;18.06423600;2023-03-13T01:25:54;-4.90;99.90
7598;DHT22;3840;59.32098800;18.06423600;2023-03-13T01:28:20;-4.70;99.90
7598;DHT22;3840;59.32098800;18.06423600;2023-03-13T01:30:46;-4.80;99.90
7598;DHT22;3840;59.32098800;18.06423600;2023-03-13T01:33:12;-4.70;99.90
7598;DHT22;3840;59.32098800;18.06423600;2023-03-13T01:35:38;-4.80;99.90
7598;DHT22;3840;59.32098800;18.06423600;2023-03-13T01:38:04;-4.80;99.90
7598;DHT22;3840;59.32098800;18.06423600;2023-03-13T01:40:29;-4.80;99.90
7598;DHT22;3840;59.32098800;18.06423600;2023-03-13T01:42:57;-4.90;99.90
7598;DHT22;3840;59.32098800;18.06423600;2023-03-13T01:45:56;-4.80;99.90
7598;DHT22;3840;59.32098800;18.06423600;2023-03-13T01:48:26;-4.80;99.90
7598;DHT22;3840;59.32098800;18.06423600;2023-03-13T01:50:54;-4.80;99.90
7598;DHT22;3840;59.32098800;18.06423600;2023-03-13T01:53:21;-4.80;99.90
7598;DHT22;3840;59.32098800;18.06423600;2023-03-13T01:55:48;-4.80;99.90
7598;DHT22;3840;59.32098800;18.06423600;2023-03-13T01:58:14;-4.80;99.90
7598;DHT22;3840;59.32098800;18.06423600;2023-03-13T02:00:40;-4.90;99.90
7598;DHT22;3840;59.32098800;18.06423600;2023-03-13T02:03:10;-4.90;99.90
7598;DHT22;3840;59.32098800;18.06423600;2023-03-13T02:05:37;-4.90;99.90
7598;DHT22;3840;59.32098800;18.06423600;2023-03-13T02:08:13;-4.90;99.90
7598;DHT22;3840;59.32098800;18.06423600;2023-03-13T02:11:06;-4.90;99.90
7598;DHT22;3840;59.32098800;18.06423600;2023-03-13T02:13:33;-4.90;99.90
7598;DHT22;3840;59.32098800;18.06423600;2023-03-13T02:15:59;-4.90;99.90
7598;DHT22;3840;59.32098800;18.06423600;2023-03-13T02:18:25;-4.90;99.90
7598;DHT22;3840;59.32098800;18.06423600;2023-03-13T02:20:58;-4.90;99.90
7598;DHT22;3840;59.32098800;18.06423600;2023-03-13T02:23:30;-4.90;99.90
7598;DHT22;3840;59.32098800;18.06423600;2023-03-13T02:25:58;-4.90;99.90
7598;DHT22;3840;59.32098800;18.06423600;2023-03-13T02:28:32;-4.80;99.90
7598;DHT22;3840;59.32098800;18.06423600;2023-03-13T02:30:59;-4.70;99.90
7598;DHT22;3840;59.32098800;18.06423600;2023-03-13T02:33:28;-4.80;99.90
7598;DHT22;3840;59.32098800;18.06423600;2023-03-13T02:35:55;-4.80;99.90
7598;DHT22;3840;59.32098800;18.06423600;2023-03-13T02:38:26;-4.80;99.90
7598;DHT22;3840;59.32098800;18.06423600;2023-03-13T02:40:55;-4.80;99.90
7598;DHT22;3840;59.32098800;18.06423600;2023-03-13T02:43:35;-4.70;99.90
7598;DHT22;3840;59.32098800;18.06423600;2023-03-13T02:48:37;-4.80;99.90
7598;DHT22;3840;59.32098800;18.06423600;2023-03-13T02:51:07;-4.80;99.90
7598;DHT22;3840;59.32098800;18.06423600;2023-03-13T02:53:37;-4.90;99.90
7598;DHT22;3840;59.32098800;18.06423600;2023-03-13T02:56:03;-4.90;99.90
7598;DHT22;3840;59.32098800;18.06423600;2023-03-13T02:58:37;-4.90;99.90
7598;DHT22;3840;59.32098800;18.06423600;2023-03-13T03:01:03;-4.90;99.90
7598;DHT22;3840;59.32098800;18.06423600;2023-03-13T03:03:33;-4.80;99.90
7598;DHT22;3840;59.32098800;18.06423600;2023-03-13T03:05:59;-4.80;99.90
7598;DHT22;3840;59.32098800;18.06423600;2023-03-13T03:08:25;-4.90;99.90
7598;DHT22;3840;59.32098800;18.06423600;2023-03-13T03:10:51;-4.80;99.90
7598;DHT22;3840;59.32098800;18.06423600;2023-03-13T03:13:17;-4.90;99.90
7598;DHT22;3840;59.32098800;18.06423600;2023-03-13T03:15:42;-4.90;99.90
7598;DHT22;3840;59.32098800;18.06423600;2023-03-13T03:18:10;-5.00;99.90
7598;DHT22;3840;59.32098800;18.06423600;2023-03-13T03:20:35;-4.90;99.90
7598;DHT22;3840;59.32098800;18.06423600;2023-03-13T03:23:01;-4.90;99.90
7598;DHT22;3840;59.32098800;18.06423600;2023-03-13T03:25:28;-4.90;99.90
7598;DHT22;3840;59.32098800;18.06423600;2023-03-13T03:27:54;-4.90;99.90
7598;DHT22;3840;59.32098800;18.06423600;2023-03-13T03:30:20;-4.90;99.90
7598;DHT22;3840;59.32098800;18.06423600;2023-03-13T03:32:46;-4.90;99.90
7598;DHT22;3840;59.32098800;18.06423600;2023-03-13T03:35:11;-4.90;99.90
7598;DHT22;3840;59.32098800;18.06423600;2023-03-13T03:37:37;-4.90;99.90
7598;DHT22;3840;59.32098800;18.06423600;2023-03-13T03:40:03;-4.90;99.90
7598;DHT22;3840;59.32098800;18.06423600;2023-03-13T03:42:49;-4.90;99.90
7598;DHT22;3840;59.32098800;18.06423600;2023-03-13T03:45:15;-4.70;99.90
7598;DHT22;3840;59.32098800;18.06423600;2023-03-13T03:47:40;-4.70;99.90
7598;DHT22;3840;59.32098800;18.06423600;2023-03-13T03:50:07;-4.60;99.90
7598;DHT22;3840;59.32098800;18.06423600;2023-03-13T03:52:36;-4.50;99.90
7598;DHT22;3840;59.32098800;18.06423600;2023-03-13T03:55:01;-4.40;99.90
7598;DHT22;3840;59.32098800;18.06423600;2023-03-13T03:57:27;-4.40;99.90
7598;DHT22;3840;59.32098800;18.06423600;2023-03-13T03:59:54;-4.40;99.90
7598;DHT22;3840;59.32098800;18.06423600;2023-03-13T04:02:19;-4.40;99.90
7598;DHT22;3840;59.32098800;18.06423600;2023-03-13T04:04:45;-4.50;99.90
7598;DHT22;3840;59.32098800;18.06423600;2023-03-13T04:07:11;-4.50;99.90
7598;DHT22;3840;59.32098800;18.06423600;2023-03-13T04:09:36;-4.50;99.90
7598;DHT22;3840;59.32098800;18.06423600;2023-03-13T04:12:02;-4.50;99.90
7598;DHT22;3840;59.32098800;18.06423600;2023-03-13T04:14:28;-4.50;99.90
7598;DHT22;3840;59.32098800;18.06423600;2023-03-13T04:16:54;-4.40;99.90
7598;DHT22;3840;59.32098800;18.06423600;2023-03-13T04:19:19;-4.50;99.90
7598;DHT22;3840;59.32098800;18.06423600;2023-03-13T04:21:45;-4.40;99.90
7598;DHT22;3840;59.32098800;18.06423600;2023-03-13T04:24:11;-4.40;99.90
7598;DHT22;3840;59.32098800;18.06423600;2023-03-13T04:26:36;-4.50;99.90
7598;DHT22;3840;59.32098800;18.06423600;2023-03-13T04:29:02;-4.60;99.90
7598;DHT22;3840;59.32098800;18.06423600;2023-03-13T04:31:28;-4.60;99.90
7598;DHT22;3840;59.32098800;18.06423600;2023-03-13T04:33:53;-4.70;99.90
7598;DHT22;3840;59.32098800;18.06423600;2023-03-13T04:36:19;-4.70;99.90
7598;DHT22;3840;59.32098800;18.06423600;2023-03-13T04:38:45;-4.70;99.90
7598;DHT22;3840;59.32098800;18.06423600;2023-03-13T04:41:11;-4.70;99.90
7598;DHT22;3840;59.32098800;18.06423600;2023-03-13T04:43:36;-4.80;99.90
7598;DHT22;3840;59.32098800;18.06423600;2023-03-13T04:46:02;-4.80;99.90
7598;DHT22;3840;59.32098800;18.06423600;2023-03-13T04:48:28;-4.80;99.90
7598;DHT22;3840;59.32098800;18.06423600;2023-03-13T04:50:54;-4.70;99.90
7598;DHT22;3840;59.32098800;18.06423600;2023-03-13T04:53:20;-4.70;99.90
7598;DHT22;3840;59.32098800;18.06423600;2023-03-13T04:55:47;-4.60;99.90
7598;DHT22;3840;59.32098800;18.06423600;2023-03-13T04:58:13;-4.60;99.90
7598;DHT22;3840;59.32098800;18.06423600;2023-03-13T05:00:39;-4.60;99.90
7598;DHT22;3840;59.32098800;18.06423600;2023-03-13T05:03:05;-4.60;99.90
7598;DHT22;3840;59.32098800;18.06423600;2023-03-13T05:05:33;-4.50;99.90
7598;DHT22;3840;59.32098800;18.06423600;2023-03-13T05:07:59;-4.50;99.90
7598;DHT22;3840;59.32098800;18.06423600;2023-03-13T05:10:25;-4.50;99.90
7598;DHT22;3840;59.32098800;18.06423600;2023-03-13T05:12:51;-4.40;99.90
7598;DHT22;3840;59.32098800;18.06423600;2023-03-13T05:15:16;-4.40;99.90
7598;DHT22;3840;59.32098800;18.06423600;2023-03-13T05:17:42;-4.40;99.90
7598;DHT22;3840;59.32098800;18.06423600;2023-03-13T05:20:09;-4.30;99.90
7598;DHT22;3840;59.32098800;18.06423600;2023-03-13T05:22:36;-4.30;99.90
7598;DHT22;3840;59.32098800;18.06423600;2023-03-13T05:25:03;-4.30;99.90
7598;DHT22;3840;59.32098800;18.06423600;2023-03-13T05:27:29;-4.20;99.90
7598;DHT22;3840;59.32098800;18.06423600;2023-03-13T05:29:55;-4.10;99.90
7598;DHT22;3840;59.32098800;18.06423600;2023-03-13T05:32:21;-4.00;99.90
7598;DHT22;3840;59.32098800;18.06423600;2023-03-13T05:34:47;-3.90;99.90
7598;DHT22;3840;59.32098800;18.06423600;2023-03-13T05:37:14;-3.80;99.90
7598;DHT22;3840;59.32098800;18.06423600;2023-03-13T05:39:39;-3.60;99.90
7598;DHT22;3840;59.32098800;18.06423600;2023-03-13T05:42:06;-3.50;99.90
7598;DHT22;3840;59.32098800;18.06423600;2023-03-13T05:44:33;-3.40;99.90
7598;DHT22;3840;59.32098800;18.06423600;2023-03-13T05:46:59;-3.30;99.90
7598;DHT22;3840;59.32098800;18.06423600;2023-03-13T05:49:24;-3.10;99.90
7598;DHT22;3840;59.32098800;18.06423600;2023-03-13T05:51:50;-3.00;99.90
7598;DHT22;3840;59.32098800;18.06423600;2023-03-13T05:54:16;-2.90;99.90
7598;DHT22;3840;59.32098800;18.06423600;2023-03-13T05:56:41;-2.80;99.90
7598;DHT22;3840;59.32098800;18.06423600;2023-03-13T05:59:07;-2.70;99.90
7598;DHT22;3840;59.32098800;18.06423600;2023-03-13T06:01:33;-2.70;99.90
7598;DHT22;3840;59.32098800;18.06423600;2023-03-13T06:03:58;-2.60;99.90
7598;DHT22;3840;59.32098800;18.06423600;2023-03-13T06:06:24;-2.40;99.90
7598;DHT22;3840;59.32098800;18.06423600;2023-03-13T06:08:51;-2.40;99.90
7598;DHT22;3840;59.32098800;18.06423600;2023-03-13T06:11:17;-2.40;99.90
7598;DHT22;3840;59.32098800;18.06423600;2023-03-13T06:13:43;-2.30;99.90
7598;DHT22;3840;59.32098800;18.06423600;2023-03-13T06:16:09;-2.30;99.90
7598;DHT22;3840;59.32098800;18.06423600;2023-03-13T06:18:35;-2.10;99.90
7598;DHT22;3840;59.32098800;18.06423600;2023-03-13T06:21:01;-1.90;99.90
7598;DHT22;3840;59.32098800;18.06423600;2023-03-13T06:23:27;-2.00;99.90
7598;DHT22;3840;59.32098800;18.06423600;2023-03-13T06:25:53;-1.90;99.90
7598;DHT22;3840;59.32098800;18.06423600;2023-03-13T06:28:19;-1.80;99.90
7598;DHT22;3840;59.32098800;18.06423600;2023-03-13T06:30:45;-1.70;99.90
7598;DHT22;3840;59.32098800;18.06423600;2023-03-13T06:33:11;-1.70;99.90
7598;DHT22;3840;59.32098800;18.06423600;2023-03-13T06:35:41;-1.50;99.90
7598;DHT22;3840;59.32098800;18.06423600;2023-03-13T06:38:08;-1.20;99.90
7598;DHT22;3840;59.32098800;18.06423600;2023-03-13T06:40:34;-1.40;99.90
7598;DHT22;3840;59.32098800;18.06423600;2023-03-13T06:42:59;-1.30;99.90
7598;DHT22;3840;59.32098800;18.06423600;2023-03-13T06:45:25;-1.20;99.90
7598;DHT22;3840;59.32098800;18.06423600;2023-03-13T06:47:51;-1.10;99.90
7598;DHT22;3840;59.32098800;18.06423600;2023-03-13T06:50:17;-1.10;99.90
7598;DHT22;3840;59.32098800;18.06423600;2023-03-13T06:52:43;-1.10;99.90
7598;DHT22;3840;59.32098800;18.06423600;2023-03-13T06:55:10;-1.00;99.90
7598;DHT22;3840;59.32098800;18.06423600;2023-03-13T06:57:35;-0.90;99.90
7598;DHT22;3840;59.32098800;18.06423600;2023-03-13T07:00:03;-0.80;99.90
7598;DHT22;3840;59.32098800;18.06423600;2023-03-13T07:02:31;-0.80;99.90
7598;DHT22;3840;59.32098800;18.06423600;2023-03-13T07:04:57;-0.70;99.90
7598;DHT22;3840;59.32098800;18.06423600;2023-03-13T07:07:24;-0.60;99.90
7598;DHT22;3840;59.32098800;18.06423600;2023-03-13T07:09:50;-0.60;99.90
7598;DHT22;3840;59.32098800;18.06423600;2023-03-13T07:12:15;-0.50;99.90
7598;DHT22;3840;59.32098800;18.06423600;2023-03-13T07:14:42;-0.40;99.90
7598;DHT22;3840;59.32098800;18.06423600;2023-03-13T07:17:08;-0.30;99.90
7598;DHT22;3840;59.32098800;18.06423600;2023-03-13T07:19:34;-0.20;99.90
7598;DHT22;3840;59.32098800;18.06423600;2023-03-13T07:21:59;-0.10;99.90
7598;DHT22;3840;59.32098800;18.06423600;2023-03-13T07:24:25;0.20;99.90
7598;DHT22;3840;59.32098800;18.06423600;2023-03-13T07:26:51;0.10;99.90
7598;DHT22;3840;59.32098800;18.06423600;2023-03-13T07:29:17;0.10;99.90
7598;DHT22;3840;59.32098800;18.06423600;2023-03-13T07:31:42;0.20;99.90
7598;DHT22;3840;59.32098800;18.06423600;2023-03-13T07:34:08;0.20;99.90
7598;DHT22;3840;59.32098800;18.06423600;2023-03-13T07:36:36;0.30;99.90
7598;DHT22;3840;59.32098800;18.06423600;2023-03-13T07:39:02;0.40;99.90
7598;DHT22;3840;59.32098800;18.06423600;2023-03-13T07:41:28;0.60;99.90
7598;DHT22;3840;59.32098800;18.06423600;2023-03-13T07:43:54;0.60;99.90
7598;DHT22;3840;59.32098800;18.06423600;2023-03-13T07:46:19;0.70;99.90
7598;DHT22;3840;59.32098800;18.06423600;2023-03-13T07:48:46;0.80;99.90
7598;DHT22;3840;59.32098800;18.06423600;2023-03-13T07:51:17;0.80;99.90
7598;DHT22;3840;59.32098800;18.06423600;2023-03-13T07:53:44;1.00;99.90
7598;DHT22;3840;59.32098800;18.06423600;2023-03-13T07:56:15;1.00;99.90
7598;DHT22;3840;59.32098800;18.06423600;2023-03-13T07:58:43;1.00;99.90
7598;DHT22;3840;59.32098800;18.06423600;2023-03-13T08:01:10;1.00;99.90
7598;DHT22;3840;59.32098800;18.06423600;2023-03-13T08:03:37;1.10;99.90
7598;DHT22;3840;59.32098800;18.06423600;2023-03-13T08:06:06;1.20;99.90
7598;DHT22;3840;59.32098800;18.06423600;2023-03-13T08:08:33;1.20;99.90
7598;DHT22;3840;59.32098800;18.06423600;2023-03-13T08:11:05;1.10;99.90
7598;DHT22;3840;59.32098800;18.06423600;2023-03-13T08:13:32;1.10;99.90
7598;DHT22;3840;59.32098800;18.06423600;2023-03-13T08:16:13;1.00;99.90
7598;DHT22;3840;59.32098800;18.06423600;2023-03-13T08:18:41;1.00;99.90
7598;DHT22;3840;59.32098800;18.06423600;2023-03-13T08:21:10;1.00;99.90
7598;DHT22;3840;59.32098800;18.06423600;2023-03-13T08:23:36;1.00;99.90
7598;DHT22;3840;59.32098800;18.06423600;2023-03-13T08:28:31;0.90;99.90
7598;DHT22;3840;59.32098800;18.06423600;2023-03-13T08:30:57;0.90;99.90
7598;DHT22;3840;59.32098800;18.06423600;2023-03-13T08:33:22;0.90;99.90
7598;DHT22;3840;59.32098800;18.06423600;2023-03-13T08:35:48;0.80;99.90
7598;DHT22;3840;59.32098800;18.06423600;2023-03-13T08:38:14;0.80;99.90
7598;DHT22;3840;59.32098800;18.06423600;2023-03-13T08:40:40;0.80;99.90
7598;DHT22;3840;59.32098800;18.06423600;2023-03-13T08:43:05;0.80;99.90
7598;DHT22;3840;59.32098800;18.06423600;2023-03-13T08:45:31;0.70;99.90
7598;DHT22;3840;59.32098800;18.06423600;2023-03-13T08:47:57;0.70;99.90
7598;DHT22;3840;59.32098800;18.06423600;2023-03-13T08:50:23;0.90;99.90
7598;DHT22;3840;59.32098800;18.06423600;2023-03-13T08:52:48;0.80;99.90
7598;DHT22;3840;59.32098800;18.06423600;2023-03-13T08:55:14;0.80;99.90
7598;DHT22;3840;59.32098800;18.06423600;2023-03-13T08:57:40;0.90;99.90
7598;DHT22;3840;59.32098800;18.06423600;2023-03-13T09:00:07;0.90;99.90
7598;DHT22;3840;59.32098800;18.06423600;2023-03-13T09:02:34;0.90;99.90
7598;DHT22;3840;59.32098800;18.06423600;2023-03-13T09:04:59;1.00;99.90
7598;DHT22;3840;59.32098800;18.06423600;2023-03-13T09:07:25;1.00;99.90
7598;DHT22;3840;59.32098800;18.06423600;2023-03-13T09:09:51;1.00;99.90
7598;DHT22;3840;59.32098800;18.06423600;2023-03-13T09:12:17;1.00;99.90
7598;DHT22;3840;59.32098800;18.06423600;2023-03-13T09:14:44;1.00;99.90
7598;DHT22;3840;59.32098800;18.06423600;2023-03-13T09:17:10;1.00;99.90
7598;DHT22;3840;59.32098800;18.06423600;2023-03-13T09:19:36;1.10;99.90
7598;DHT22;3840;59.32098800;18.06423600;2023-03-13T09:22:03;1.20;99.90
7598;DHT22;3840;59.32098800;18.06423600;2023-03-13T09:24:29;1.10;99.90
7598;DHT22;3840;59.32098800;18.06423600;2023-03-13T09:26:54;1.20;99.90
7598;DHT22;3840;59.32098800;18.06423600;2023-03-13T09:29:20;1.10;99.90
7598;DHT22;3840;59.32098800;18.06423600;2023-03-13T09:31:46;1.10;99.90
7598;DHT22;3840;59.32098800;18.06423600;2023-03-13T09:34:12;1.20;99.90
7598;DHT22;3840;59.32098800;18.06423600;2023-03-13T09:36:38;1.20;99.90
7598;DHT22;3840;59.32098800;18.06423600;2023-03-13T09:39:03;1.10;99.90
7598;DHT22;3840;59.32098800;18.06423600;2023-03-13T09:44:57;1.20;99.90
7598;DHT22;3840;59.32098800;18.06423600;2023-03-13T09:47:39;1.30;99.90
7598;DHT22;3840;59.32098800;18.06423600;2023-03-13T09:50:17;1.30;99.90
7598;DHT22;3840;59.32098800;18.06423600;2023-03-13T09:52:45;1.40;99.90
7598;DHT22;3840;59.32098800;18.06423600;2023-03-13T09:55:18;1.30;99.90
7598;DHT22;3840;59.32098800;18.06423600;2023-03-13T09:58:13;1.40;99.90
7598;DHT22;3840;59.32098800;18.06423600;2023-03-13T10:00:56;1.30;99.90
7598;DHT22;3840;59.32098800;18.06423600;2023-03-13T10:03:38;1.30;99.90
7598;DHT22;3840;59.32098800;18.06423600;2023-03-13T10:06:11;1.30;99.90
7598;DHT22;3840;59.32098800;18.06423600;2023-03-13T10:08:39;1.40;99.90
7598;DHT22;3840;59.32098800;18.06423600;2023-03-13T10:14:05;1.50;99.90
7598;DHT22;3840;59.32098800;18.06423600;2023-03-13T10:16:54;1.40;99.90
7598;DHT22;3840;59.32098800;18.06423600;2023-03-13T10:19:33;1.40;99.90
7598;DHT22;3840;59.32098800;18.06423600;2023-03-13T10:22:10;1.40;99.90
7598;DHT22;3840;59.32098800;18.06423600;2023-03-13T10:24:51;1.40;99.90
7598;DHT22;3840;59.32098800;18.06423600;2023-03-13T10:27:19;1.40;99.90
7598;DHT22;3840;59.32098800;18.06423600;2023-03-13T10:29:45;1.40;99.90
7598;DHT22;3840;59.32098800;18.06423600;2023-03-13T10:32:15;1.40;99.90
7598;DHT22;3840;59.32098800;18.06423600;2023-03-13T10:34:59;1.30;99.90
7598;DHT22;3840;59.32098800;18.06423600;2023-03-13T10:37:31;1.30;99.90
7598;DHT22;3840;59.32098800;18.06423600;2023-03-13T10:40:18;1.30;99.90
7598;DHT22;3840;59.32098800;18.06423600;2023-03-13T10:42:44;1.30;99.90
7598;DHT22;3840;59.32098800;18.06423600;2023-03-13T10:45:15;1.30;99.90
7598;DHT22;3840;59.32098800;18.06423600;2023-03-13T10:47:42;1.30;99.90
7598;DHT22;3840;59.32098800;18.06423600;2023-03-13T10:50:17;1.40;99.90
7598;DHT22;3840;59.32098800;18.06423600;2023-03-13T10:52:46;1.40;99.90
7598;DHT22;3840;59.32098800;18.06423600;2023-03-13T10:55:16;1.50;99.90
7598;DHT22;3840;59.32098800;18.06423600;2023-03-13T11:00:43;1.50;99.90
7598;DHT22;3840;59.32098800;18.06423600;2023-03-13T11:03:22;1.50;99.90
7598;DHT22;3840;59.32098800;18.06423600;2023-03-13T11:06:02;1.50;99.90
7598;DHT22;3840;59.32098800;18.06423600;2023-03-13T11:08:36;1.60;99.90
7598;DHT22;3840;59.32098800;18.06423600;2023-03-13T11:11:16;1.80;99.90
7598;DHT22;3840;59.32098800;18.06423600;2023-03-13T11:13:43;1.50;99.90
7598;DHT22;3840;59.32098800;18.06423600;2023-03-13T11:16:27;1.20;99.90
7598;DHT22;3840;59.32098800;18.06423600;2023-03-13T11:24:09;1.40;99.90
7598;DHT22;3840;59.32098800;18.06423600;2023-03-13T11:26:45;1.50;99.90
7598;DHT22;3840;59.32098800;18.06423600;2023-03-13T11:38:01;1.60;99.90
7598;DHT22;3840;59.32098800;18.06423600;2023-03-13T11:54:09;1.50;99.90
7598;DHT22;3840;59.32098800;18.06423600;2023-03-13T11:56:51;1.50;99.90
7598;DHT22;3840;59.32098800;18.06423600;2023-03-13T11:59:34;1.40;99.90
7598;DHT22;3840;59.32098800;18.06423600;2023-03-13T12:02:32;1.40;99.90
7598;DHT22;3840;59.32098800;18.06423600;2023-03-13T12:05:04;1.50;99.90
7598;DHT22;3840;59.32098800;18.06423600;2023-03-13T12:08:08;1.50;99.90
7598;DHT22;3840;59.32098800;18.06423600;2023-03-13T12:10:40;1.60;99.90
7598;DHT22;3840;59.32098800;18.06423600;2023-03-13T12:13:21;1.70;99.90
7598;DHT22;3840;59.32098800;18.06423600;2023-03-13T12:15:53;1.70;99.90
7598;DHT22;3840;59.32098800;18.06423600;2023-03-13T12:18:42;1.70;99.90
7598;DHT22;3840;59.32098800;18.06423600;2023-03-13T12:26:20;1.70;99.90
7598;DHT22;3840;59.32098800;18.06423600;2023-03-13T12:39:47;1.20;99.90
7598;DHT22;3840;59.32098800;18.06423600;2023-03-13T12:44:59;1.70;99.90
7598;DHT22;3840;59.32098800;18.06423600;2023-03-13T13:00:25;1.70;99.90
7598;DHT22;3840;59.32098800;18.06423600;2023-03-13T13:03:14;1.80;99.90
7598;DHT22;3840;59.32098800;18.06423600;2023-03-13T13:08:50;1.80;99.90
7598;DHT22;3840;59.32098800;18.06423600;2023-03-13T13:14:35;1.80;99.90
7598;DHT22;3840;59.32098800;18.06423600;2023-03-13T13:17:53;1.80;99.90
7598;DHT22;3840;59.32098800;18.06423600;2023-03-13T13:19:49;1.80;99.90
7598;DHT22;3840;59.32098800;18.06423600;2023-03-13T13:33:42;1.80;99.90
7598;DHT22;3840;59.32098800;18.06423600;2023-03-13T13:35:44;1.80;99.90
7598;DHT22;3840;59.32098800;18.06423600;2023-03-13T13:41:20;1.80;99.90
7598;DHT22;3840;59.32098800;18.06423600;2023-03-13T13:43:49;1.80;99.90
7598;DHT22;3840;59.32098800;18.06423600;2023-03-13T13:46:34;1.80;99.90
7598;DHT22;3840;59.32098800;18.06423600;2023-03-13T13:51:33;1.80;99.90
7598;DHT22;3840;59.32098800;18.06423600;2023-03-13T13:54:02;1.70;99.90
7598;DHT22;3840;59.32098800;18.06423600;2023-03-13T13:56:29;1.80;99.90
7598;DHT22;3840;59.32098800;18.06423600;2023-03-13T13:59:43;1.70;99.90
7598;DHT22;3840;59.32098800;18.06423600;2023-03-13T14:01:44;1.70;99.90
7598;DHT22;3840;59.32098800;18.06423600;2023-03-13T14:06:38;1.70;99.90
7598;DHT22;3840;59.32098800;18.06423600;2023-03-13T14:09:31;1.60;99.90
7598;DHT22;3840;59.32098800;18.06423600;2023-03-13T14:11:57;1.60;99.90
7598;DHT22;3840;59.32098800;18.06423600;2023-03-13T14:14:23;1.70;99.90
7598;DHT22;3840;59.32098800;18.06423600;2023-03-13T14:16:54;1.70;99.90
7598;DHT22;3840;59.32098800;18.06423600;2023-03-13T14:19:42;1.60;99.90
7598;DHT22;3840;59.32098800;18.06423600;2023-03-13T14:22:09;1.60;99.90
7598;DHT22;3840;59.32098800;18.06423600;2023-03-13T14:24:36;1.60;99.90
7598;DHT22;3840;59.32098800;18.06423600;2023-03-13T14:27:17;1.60;99.90
7598;DHT22;3840;59.32098800;18.06423600;2023-03-13T14:30:06;1.60;99.90
7598;DHT22;3840;59.32098800;18.06423600;2023-03-13T14:32:36;1.70;99.90
7598;DHT22;3840;59.32098800;18.06423600;2023-03-13T14:35:04;1.60;99.90
7598;DHT22;3840;59.32098800;18.06423600;2023-03-13T14:37:36;1.60;99.90
7598;DHT22;3840;59.32098800;18.06423600;2023-03-13T14:40:28;1.60;99.90
7598;DHT22;3840;59.32098800;18.06423600;2023-03-13T14:42:55;1.60;99.90
7598;DHT22;3840;59.32098800;18.06423600;2023-03-13T14:45:31;1.60;99.90
7598;DHT22;3840;59.32098800;18.06423600;2023-03-13T14:48:30;1.60;99.90
7598;DHT22;3840;59.32098800;18.06423600;2023-03-13T14:53:27;1.70;99.90
7598;DHT22;3840;59.32098800;18.06423600;2023-03-13T14:56:38;1.70;99.90
7598;DHT22;3840;59.32098800;18.06423600;2023-03-13T14:59:18;1.60;99.90
7598;DHT22;3840;59.32098800;18.06423600;2023-03-13T15:02:01;1.70;99.90
7598;DHT22;3840;59.32098800;18.06423600;2023-03-13T15:05:30;1.70;99.90
7598;DHT22;3840;59.32098800;18.06423600;2023-03-13T15:07:55;1.70;99.90
7598;DHT22;3840;59.32098800;18.06423600;2023-03-13T15:10:25;1.90;99.90
7598;DHT22;3840;59.32098800;18.06423600;2023-03-13T15:12:55;1.80;99.90
7598;DHT22;3840;59.32098800;18.06423600;2023-03-13T15:15:21;1.80;99.90
7598;DHT22;3840;59.32098800;18.06423600;2023-03-13T15:17:47;1.90;99.90
7598;DHT22;3840;59.32098800;18.06423600;2023-03-13T15:20:14;1.90;99.90
7598;DHT22;3840;59.32098800;18.06423600;2023-03-13T15:22:42;2.00;99.90
7598;DHT22;3840;59.32098800;18.06423600;2023-03-13T15:25:21;2.00;99.90
7598;DHT22;3840;59.32098800;18.06423600;2023-03-13T15:27:48;2.10;99.90
7598;DHT22;3840;59.32098800;18.06423600;2023-03-13T15:30:19;2.20;99.90
7598;DHT22;3840;59.32098800;18.06423600;2023-03-13T15:32:48;2.20;99.90
7598;DHT22;3840;59.32098800;18.06423600;2023-03-13T15:35:30;2.30;99.90
7598;DHT22;3840;59.32098800;18.06423600;2023-03-13T15:37:58;2.30;99.90